sensor_id;sensor_type;location;lat;lon;timestamp;temperature;humidity
75838;SHT30;64480;52.040;113.502;2023-04-25T00:01:26;11.42;19.46
75838;SHT30;64480;52.040;113.502;2023-04-25T00:04:30;11.95;19.09
75838;SHT30;64480;52.040;113.502;2023-04-25T00:07:36;12.45;18.37
75838;SHT30;64480;52.040;113.502;2023-04-25T00:10:39;12.77;18.02
75838;SHT30;64480;52.040;113.502;2023-04-25T00:13:43;12.61;17.82
75838;SHT30;64480;52.040;113.502;2023-04-25T00:16:46;12.30;17.98
75838;SHT30;64480;52.040;113.502;2023-04-25T00:19:51;12.53;17.71
75838;SHT30;64480;52.040;113.502;2023-04-25T00:22:55;12.74;17.88
75838;SHT30;64480;52.040;113.502;2023-04-25T00:25:58;12.18;18.48
75838;SHT30;64480;52.040;113.502;2023-04-25T00:29:02;11.95;18.69
75838;SHT30;64480;52.040;113.502;2023-04-25T00:32:05;11.60;19.10
75838;SHT30;64480;52.040;113.502;2023-04-25T00:35:09;11.52;19.37
75838;SHT30;64480;52.040;113.502;2023-04-25T00:38:12;11.50;19.07
75838;SHT30;64480;52.040;113.502;2023-04-25T00:41:17;11.49;19.08
75838;SHT30;64480;52.040;113.502;2023-04-25T00:44:20;10.50;19.37
75838;SHT30;64480;52.040;113.502;2023-04-25T00:47:25;10.08;19.62
75838;SHT30;64480;52.040;113.502;2023-04-25T00:50:28;9.83;19.64
75838;SHT30;64480;52.040;113.502;2023-04-25T00:53:32;9.04;20.14
75838;SHT30;64480;52.040;113.502;2023-04-25T00:56:36;8.29;21.75
75838;SHT30;64480;52.040;113.502;2023-04-25T00:59:42;7.80;22.45
75838;SHT30;64480;52.040;113.502;2023-04-25T01:02:48;6.81;23.18
75838;SHT30;64480;52.040;113.502;2023-04-25T01:05:53;6.69;23.66
75838;SHT30;64480;52.040;113.502;2023-04-25T01:08:57;6.43;24.09
75838;SHT30;64480;52.040;113.502;2023-04-25T01:12:02;6.24;23.44
75838;SHT30;64480;52.040;113.502;2023-04-25T01:15:06;5.97;23.62
75838;SHT30;64480;52.040;113.502;2023-04-25T01:18:10;5.98;23.86
75838;SHT30;64480;52.040;113.502;2023-04-25T01:21:14;6.19;24.16
75838;SHT30;64480;52.040;113.502;2023-04-25T01:24:19;6.26;23.82
75838;SHT30;64480;52.040;113.502;2023-04-25T01:27:22;6.32;23.90
75838;SHT30;64480;52.040;113.502;2023-04-25T01:30:26;6.66;23.19
75838;SHT30;64480;52.040;113.502;2023-04-25T01:33:30;6.79;23.22
75838;SHT30;64480;52.040;113.502;2023-04-25T01:36:35;6.42;23.13
75838;SHT30;64480;52.040;113.502;2023-04-25T01:39:38;6.14;23.69
75838;SHT30;64480;52.040;113.502;2023-04-25T01:42:43;6.46;23.35
75838;SHT30;64480;52.040;113.502;2023-04-25T01:45:49;6.72;22.68
75838;SHT30;64480;52.040;113.502;2023-04-25T01:48:53;6.64;23.10
75838;SHT30;64480;52.040;113.502;2023-04-25T01:51:57;6.64;22.48
75838;SHT30;64480;52.040;113.502;2023-04-25T01:55:01;6.79;22.41
75838;SHT30;64480;52.040;113.502;2023-04-25T01:58:08;6.70;22.40
75838;SHT30;64480;52.040;113.502;2023-04-25T02:01:35;6.85;21.93
75838;SHT30;64480;52.040;113.502;2023-04-25T02:04:50;6.85;21.76
75838;SHT30;64480;52.040;113.502;2023-04-25T02:07:55;7.19;22.00
75838;SHT30;64480;52.040;113.502;2023-04-25T02:11:00;7.74;21.41
75838;SHT30;64480;52.040;113.502;2023-04-25T02:14:13;8.09;19.06
75838;SHT30;64480;52.040;113.502;2023-04-25T02:17:23;8.36;19.83
75838;SHT30;64480;52.040;113.502;2023-04-25T02:20:27;8.75;19.31
75838;SHT30;64480;52.040;113.502;2023-04-25T02:23:30;8.74;18.99
75838;SHT30;64480;52.040;113.502;2023-04-25T02:26:34;8.70;19.16
75838;SHT30;64480;52.040;113.502;2023-04-25T02:29:42;8.88;19.53
75838;SHT30;64480;52.040;113.502;2023-04-25T02:32:46;9.22;18.51
75838;SHT30;64480;52.040;113.502;2023-04-25T02:35:49;9.16;19.11
75838;SHT30;64480;52.040;113.502;2023-04-25T02:38:56;9.47;18.53
75838;SHT30;64480;52.040;113.502;2023-04-25T02:41:59;9.44;18.71
75838;SHT30;64480;52.040;113.502;2023-04-25T02:45:04;9.67;18.94
75838;SHT30;64480;52.040;113.502;2023-04-25T02:48:09;9.85;18.49
75838;SHT30;64480;52.040;113.502;2023-04-25T02:51:12;9.57;18.37
75838;SHT30;64480;52.040;113.502;2023-04-25T02:54:16;9.54;19.00
75838;SHT30;64480;52.040;113.502;2023-04-25T02:57:22;9.54;18.29
75838;SHT30;64480;52.040;113.502;2023-04-25T03:00:25;9.63;17.83
75838;SHT30;64480;52.040;113.502;2023-04-25T03:03:29;9.57;17.99
75838;SHT30;64480;52.040;113.502;2023-04-25T03:06:32;9.87;17.83
75838;SHT30;64480;52.040;113.502;2023-04-25T03:09:36;10.33;17.44
75838;SHT30;64480;52.040;113.502;2023-04-25T03:12:39;10.84;16.99
75838;SHT30;64480;52.040;113.502;2023-04-25T03:15:43;11.30;16.42
75838;SHT30;64480;52.040;113.502;2023-04-25T03:18:47;11.02;15.07
75838;SHT30;64480;52.040;113.502;2023-04-25T03:21:50;11.33;15.52
75838;SHT30;64480;52.040;113.502;2023-04-25T03:24:54;11.38;14.79
75838;SHT30;64480;52.040;113.502;2023-04-25T03:27:57;10.97;15.15
75838;SHT30;64480;52.040;113.502;2023-04-25T03:31:00;10.80;14.89
75838;SHT30;64480;52.040;113.502;2023-04-25T03:34:04;10.77;13.65
75838;SHT30;64480;52.040;113.502;2023-04-25T03:37:07;10.98;13.61
75838;SHT30;64480;52.040;113.502;2023-04-25T03:40:12;10.93;12.65
75838;SHT30;64480;52.040;113.502;2023-04-25T03:43:39;10.63;12.67
75838;SHT30;64480;52.040;113.502;2023-04-25T03:46:46;10.68;12.96
75838;SHT30;64480;52.040;113.502;2023-04-25T03:49:49;10.97;12.80
75838;SHT30;64480;52.040;113.502;2023-04-25T03:52:57;11.46;13.29
75838;SHT30;64480;52.040;113.502;2023-04-25T03:56:04;11.52;11.95
75838;SHT30;64480;52.040;113.502;2023-04-25T03:59:11;11.74;12.29
75838;SHT30;64480;52.040;113.502;2023-04-25T04:02:15;12.04;12.25
75838;SHT30;64480;52.040;113.502;2023-04-25T04:05:18;12.19;11.38
75838;SHT30;64480;52.040;113.502;2023-04-25T04:08:27;12.04;11.87
75838;SHT30;64480;52.040;113.502;2023-04-25T04:11:31;11.99;12.36
75838;SHT30;64480;52.040;113.502;2023-04-25T04:14:35;12.05;12.64
75838;SHT30;64480;52.040;113.502;2023-04-25T04:17:38;12.25;12.59
75838;SHT30;64480;52.040;113.502;2023-04-25T04:20:43;12.17;12.51
75838;SHT30;64480;52.040;113.502;2023-04-25T04:23:46;12.40;12.62
75838;SHT30;64480;52.040;113.502;2023-04-25T04:26:51;12.45;12.00
75838;SHT30;64480;52.040;113.502;2023-04-25T04:30:10;12.04;12.01
75838;SHT30;64480;52.040;113.502;2023-04-25T04:33:27;11.88;12.03
75838;SHT30;64480;52.040;113.502;2023-04-25T04:36:34;12.11;11.45
75838;SHT30;64480;52.040;113.502;2023-04-25T04:39:38;12.47;12.60
75838;SHT30;64480;52.040;113.502;2023-04-25T04:42:54;12.93;11.71
75838;SHT30;64480;52.040;113.502;2023-04-25T04:46:28;12.60;11.55
75838;SHT30;64480;52.040;113.502;2023-04-25T04:49:57;12.94;11.68
75838;SHT30;64480;52.040;113.502;2023-04-25T04:53:46;12.80;11.39
75838;SHT30;64480;52.040;113.502;2023-04-25T04:57:18;12.88;11.51
75838;SHT30;64480;52.040;113.502;2023-04-25T05:00:36;12.98;11.02
75838;SHT30;64480;52.040;113.502;2023-04-25T05:04:06;13.04;11.75
75838;SHT30;64480;52.040;113.502;2023-04-25T05:07:35;13.36;11.07
75838;SHT30;64480;52.040;113.502;2023-04-25T05:10:59;13.34;11.20
75838;SHT30;64480;52.040;113.502;2023-04-25T05:14:14;13.36;11.10
75838;SHT30;64480;52.040;113.502;2023-04-25T05:17:39;13.38;11.09
75838;SHT30;64480;52.040;113.502;2023-04-25T05:21:00;13.36;10.81
75838;SHT30;64480;52.040;113.502;2023-04-25T05:24:22;13.04;11.11
75838;SHT30;64480;52.040;113.502;2023-04-25T05:27:44;12.95;11.30
75838;SHT30;64480;52.040;113.502;2023-04-25T05:31:11;12.53;11.04
75838;SHT30;64480;52.040;113.502;2023-04-25T05:34:24;12.40;11.04
75838;SHT30;64480;52.040;113.502;2023-04-25T05:37:33;13.04;11.32
75838;SHT30;64480;52.040;113.502;2023-04-25T05:40:44;13.10;11.26
75838;SHT30;64480;52.040;113.502;2023-04-25T05:44:20;12.83;10.95
75838;SHT30;64480;52.040;113.502;2023-04-25T05:47:45;12.67;11.48
75838;SHT30;64480;52.040;113.502;2023-04-25T05:50:54;12.93;11.63
75838;SHT30;64480;52.040;113.502;2023-04-25T05:54:16;13.10;11.19
75838;SHT30;64480;52.040;113.502;2023-04-25T05:57:26;13.00;11.01
75838;SHT30;64480;52.040;113.502;2023-04-25T06:00:31;13.07;12.04
75838;SHT30;64480;52.040;113.502;2023-04-25T06:03:34;12.98;11.11
75838;SHT30;64480;52.040;113.502;2023-04-25T06:06:39;13.19;11.16
75838;SHT30;64480;52.040;113.502;2023-04-25T06:09:45;13.10;11.70
75838;SHT30;64480;52.040;113.502;2023-04-25T06:12:49;12.97;11.43
75838;SHT30;64480;52.040;113.502;2023-04-25T06:15:55;12.84;11.69
75838;SHT30;64480;52.040;113.502;2023-04-25T06:18:58;12.74;11.56
75838;SHT30;64480;52.040;113.502;2023-04-25T06:22:02;12.87;11.56
75838;SHT30;64480;52.040;113.502;2023-04-25T06:25:10;13.02;11.73
75838;SHT30;64480;52.040;113.502;2023-04-25T06:28:17;13.00;11.65
75838;SHT30;64480;52.040;113.502;2023-04-25T06:31:24;12.94;11.87
75838;SHT30;64480;52.040;113.502;2023-04-25T06:34:30;12.90;11.61
75838;SHT30;64480;52.040;113.502;2023-04-25T06:37:34;12.90;11.90
75838;SHT30;64480;52.040;113.502;2023-04-25T06:40:37;12.88;12.33
75838;SHT30;64480;52.040;113.502;2023-04-25T06:43:42;12.68;12.46
75838;SHT30;64480;52.040;113.502;2023-04-25T06:47:08;12.45;11.79
75838;SHT30;64480;52.040;113.502;2023-04-25T06:50:12;12.33;11.75
75838;SHT30;64480;52.040;113.502;2023-04-25T06:53:16;12.33;12.45
75838;SHT30;64480;52.040;113.502;2023-04-25T06:56:23;12.32;12.53
75838;SHT30;64480;52.040;113.502;2023-04-25T06:59:33;12.30;12.51
75838;SHT30;64480;52.040;113.502;2023-04-25T07:02:38;12.10;12.41
75838;SHT30;64480;52.040;113.502;2023-04-25T07:05:43;11.97;12.49
75838;SHT30;64480;52.040;113.502;2023-04-25T07:08:48;11.84;12.53
75838;SHT30;64480;52.040;113.502;2023-04-25T07:11:52;11.85;12.94
75838;SHT30;64480;52.040;113.502;2023-04-25T07:14:55;11.83;12.56
75838;SHT30;64480;52.040;113.502;2023-04-25T07:18:01;12.02;12.80
75838;SHT30;64480;52.040;113.502;2023-04-25T07:21:05;12.12;13.17
75838;SHT30;64480;52.040;113.502;2023-04-25T07:24:10;12.22;13.25
75838;SHT30;64480;52.040;113.502;2023-04-25T07:27:19;12.24;13.03
75838;SHT30;64480;52.040;113.502;2023-04-25T07:30:48;12.17;13.34
75838;SHT30;64480;52.040;113.502;2023-04-25T07:33:52;12.15;13.36
75838;SHT30;64480;52.040;113.502;2023-04-25T07:36:55;12.25;13.37
75838;SHT30;64480;52.040;113.502;2023-04-25T07:40:10;12.29;12.78
75838;SHT30;64480;52.040;113.502;2023-04-25T07:43:37;12.28;13.11
75838;SHT30;64480;52.040;113.502;2023-04-25T07:46:40;12.49;13.18
75838;SHT30;64480;52.040;113.502;2023-04-25T07:49:44;12.60;13.14
75838;SHT30;64480;52.040;113.502;2023-04-25T07:52:48;12.63;12.25
75838;SHT30;64480;52.040;113.502;2023-04-25T07:55:58;12.68;12.75
75838;SHT30;64480;52.040;113.502;2023-04-25T07:59:05;12.88;12.79
75838;SHT30;64480;52.040;113.502;2023-04-25T08:02:09;12.87;12.75
75838;SHT30;64480;52.040;113.502;2023-04-25T08:05:14;12.94;12.87
75838;SHT30;64480;52.040;113.502;2023-04-25T08:08:26;13.16;12.73
75838;SHT30;64480;52.040;113.502;2023-04-25T08:11:30;13.11;12.13
75838;SHT30;64480;52.040;113.502;2023-04-25T08:14:34;13.22;12.66
75838;SHT30;64480;52.040;113.502;2023-04-25T08:17:43;13.28;12.82
75838;SHT30;64480;52.040;113.502;2023-04-25T08:20:50;13.29;12.31
75838;SHT30;64480;52.040;113.502;2023-04-25T08:23:55;13.38;12.87
75838;SHT30;64480;52.040;113.502;2023-04-25T08:27:05;13.43;12.68
75838;SHT30;64480;52.040;113.502;2023-04-25T08:30:12;13.63;13.27
75838;SHT30;64480;52.040;113.502;2023-04-25T08:33:17;13.85;12.89
75838;SHT30;64480;52.040;113.502;2023-04-25T08:36:31;14.07;13.11
75838;SHT30;64480;52.040;113.502;2023-04-25T08:40:01;14.19;12.37
75838;SHT30;64480;52.040;113.502;2023-04-25T08:43:19;14.22;12.22
75838;SHT30;64480;52.040;113.502;2023-04-25T08:46:23;14.08;12.82
75838;SHT30;64480;52.040;113.502;2023-04-25T08:49:53;13.84;12.56
75838;SHT30;64480;52.040;113.502;2023-04-25T08:52:59;13.52;12.24
75838;SHT30;64480;52.040;113.502;2023-04-25T08:56:06;13.43;12.30
75838;SHT30;64480;52.040;113.502;2023-04-25T08:59:12;13.28;12.55
75838;SHT30;64480;52.040;113.502;2023-04-25T09:02:17;13.28;12.84
75838;SHT30;64480;52.040;113.502;2023-04-25T09:05:25;13.53;13.16
75838;SHT30;64480;52.040;113.502;2023-04-25T09:08:29;13.73;13.39
75838;SHT30;64480;52.040;113.502;2023-04-25T09:11:34;13.97;13.35
75838;SHT30;64480;52.040;113.502;2023-04-25T09:14:42;14.07;13.24
75838;SHT30;64480;52.040;113.502;2023-04-25T09:18:28;13.84;13.35
75838;SHT30;64480;52.040;113.502;2023-04-25T09:21:34;13.85;13.36
75838;SHT30;64480;52.040;113.502;2023-04-25T09:24:43;13.77;13.68
75838;SHT30;64480;52.040;113.502;2023-04-25T09:27:51;13.67;13.35
75838;SHT30;64480;52.040;113.502;2023-04-25T09:31:01;13.71;13.80
75838;SHT30;64480;52.040;113.502;2023-04-25T09:34:12;13.70;13.63
75838;SHT30;64480;52.040;113.502;2023-04-25T09:37:28;13.65;14.08
75838;SHT30;64480;52.040;113.502;2023-04-25T09:41:03;13.57;14.25
75838;SHT30;64480;52.040;113.502;2023-04-25T09:44:23;13.52;14.46
75838;SHT30;64480;52.040;113.502;2023-04-25T09:47:29;13.62;14.48
75838;SHT30;64480;52.040;113.502;2023-04-25T09:50:34;13.60;14.24
75838;SHT30;64480;52.040;113.502;2023-04-25T09:53:44;13.39;14.06
75838;SHT30;64480;52.040;113.502;2023-04-25T09:57:19;13.36;14.39
75838;SHT30;64480;52.040;113.502;2023-04-25T10:00:24;13.28;14.92
75838;SHT30;64480;52.040;113.502;2023-04-25T10:03:30;13.19;14.73
75838;SHT30;64480;52.040;113.502;2023-04-25T10:06:52;13.16;14.67
75838;SHT30;64480;52.040;113.502;2023-04-25T10:10:01;13.21;15.24
75838;SHT30;64480;52.040;113.502;2023-04-25T10:13:06;13.26;15.11
75838;SHT30;64480;52.040;113.502;2023-04-25T10:16:10;13.28;16.03
75838;SHT30;64480;52.040;113.502;2023-04-25T10:19:14;13.28;15.03
75838;SHT30;64480;52.040;113.502;2023-04-25T10:22:34;13.28;15.49
75838;SHT30;64480;52.040;113.502;2023-04-25T10:25:44;13.25;14.91
75838;SHT30;64480;52.040;113.502;2023-04-25T10:29:01;13.22;15.05
75838;SHT30;64480;52.040;113.502;2023-04-25T10:32:05;13.19;15.31
75838;SHT30;64480;52.040;113.502;2023-04-25T10:35:16;13.15;15.79
75838;SHT30;64480;52.040;113.502;2023-04-25T10:38:19;13.14;16.48
75838;SHT30;64480;52.040;113.502;2023-04-25T10:41:23;13.04;16.31
75838;SHT30;64480;52.040;113.502;2023-04-25T10:44:27;12.87;16.69
75838;SHT30;64480;52.040;113.502;2023-04-25T10:47:44;12.79;16.47
75838;SHT30;64480;52.040;113.502;2023-04-25T10:50:48;12.72;16.75
75838;SHT30;64480;52.040;113.502;2023-04-25T10:54:02;12.63;16.52
75838;SHT30;64480;52.040;113.502;2023-04-25T10:57:06;12.49;17.17
75838;SHT30;64480;52.040;113.502;2023-04-25T11:00:20;12.39;17.16
75838;SHT30;64480;52.040;113.502;2023-04-25T11:07:53;12.12;16.98
75838;SHT30;64480;52.040;113.502;2023-04-25T11:11:12;11.95;16.94
75838;SHT30;64480;52.040;113.502;2023-04-25T11:14:15;11.84;16.11
75838;SHT30;64480;52.040;113.502;2023-04-25T11:17:18;11.73;16.30
75838;SHT30;64480;52.040;113.502;2023-04-25T11:20:25;11.62;16.25
75838;SHT30;64480;52.040;113.502;2023-04-25T11:23:30;11.62;16.29
75838;SHT30;64480;52.040;113.502;2023-04-25T11:26:36;11.59;16.80
75838;SHT30;64480;52.040;113.502;2023-04-25T11:29:44;11.50;16.19
75838;SHT30;64480;52.040;113.502;2023-04-25T11:32:50;11.44;16.16
75838;SHT30;64480;52.040;113.502;2023-04-25T11:35:55;11.38;16.50
75838;SHT30;64480;52.040;113.502;2023-04-25T11:39:05;11.26;16.97
75838;SHT30;64480;52.040;113.502;2023-04-25T11:42:08;11.18;17.74
75838;SHT30;64480;52.040;113.502;2023-04-25T11:45:15;11.10;17.56
75838;SHT30;64480;52.040;113.502;2023-04-25T11:48:19;11.01;17.06
75838;SHT30;64480;52.040;113.502;2023-04-25T11:51:27;11.01;17.17
75838;SHT30;64480;52.040;113.502;2023-04-25T11:54:56;10.94;17.40
75838;SHT30;64480;52.040;113.502;2023-04-25T11:58:00;10.90;17.65
75838;SHT30;64480;52.040;113.502;2023-04-25T12:01:05;10.90;17.39
75838;SHT30;64480;52.040;113.502;2023-04-25T12:04:22;10.84;18.15
75838;SHT30;64480;52.040;113.502;2023-04-25T12:07:37;10.77;17.87
75838;SHT30;64480;52.040;113.502;2023-04-25T12:10:42;10.73;17.12
75838;SHT30;64480;52.040;113.502;2023-04-25T12:13:51;10.67;18.31
75838;SHT30;64480;52.040;113.502;2023-04-25T12:16:57;10.60;17.72
75838;SHT30;64480;52.040;113.502;2023-04-25T12:20:09;10.59;17.90
75838;SHT30;64480;52.040;113.502;2023-04-25T12:23:13;10.53;18.60
75838;SHT30;64480;52.040;113.502;2023-04-25T12:26:22;10.43;19.63
75838;SHT30;64480;52.040;113.502;2023-04-25T12:33:00;10.21;19.70
75838;SHT30;64480;52.040;113.502;2023-04-25T12:36:12;10.13;19.73
75838;SHT30;64480;52.040;113.502;2023-04-25T12:39:24;10.05;20.40
75838;SHT30;64480;52.040;113.502;2023-04-25T12:42:52;9.97;20.51
75838;SHT30;64480;52.040;113.502;2023-04-25T12:46:01;9.91;19.83
75838;SHT30;64480;52.040;113.502;2023-04-25T12:49:29;9.88;19.64
75838;SHT30;64480;52.040;113.502;2023-04-25T12:52:33;9.84;18.66
75838;SHT30;64480;52.040;113.502;2023-04-25T12:55:42;9.83;19.15
75838;SHT30;64480;52.040;113.502;2023-04-25T12:58:49;9.81;18.96
75838;SHT30;64480;52.040;113.502;2023-04-25T13:01:52;9.77;19.46
75838;SHT30;64480;52.040;113.502;2023-04-25T13:05:25;9.69;19.32
75838;SHT30;64480;52.040;113.502;2023-04-25T13:08:28;9.60;19.67
75838;SHT30;64480;52.040;113.502;2023-04-25T13:11:32;9.38;21.87
75838;SHT30;64480;52.040;113.502;2023-04-25T13:14:36;9.10;23.31
75838;SHT30;64480;52.040;113.502;2023-04-25T13:18:04;8.66;24.03
75838;SHT30;64480;52.040;113.502;2023-04-25T13:21:11;8.39;24.56
75838;SHT30;64480;52.040;113.502;2023-04-25T13:24:14;8.18;25.02
75838;SHT30;64480;52.040;113.502;2023-04-25T13:27:18;7.98;25.30
75838;SHT30;64480;52.040;113.502;2023-04-25T13:34:20;7.56;25.84
75838;SHT30;64480;52.040;113.502;2023-04-25T13:37:23;7.46;26.36
75838;SHT30;64480;52.040;113.502;2023-04-25T13:40:27;7.33;26.25
75838;SHT30;64480;52.040;113.502;2023-04-25T13:43:42;7.25;26.55
75838;SHT30;64480;52.040;113.502;2023-04-25T13:46:52;7.11;26.41
75838;SHT30;64480;52.040;113.502;2023-04-25T13:49:56;6.98;26.71
75838;SHT30;64480;52.040;113.502;2023-04-25T13:52:59;6.84;26.92
75838;SHT30;64480;52.040;113.502;2023-04-25T13:56:03;6.73;27.09
75838;SHT30;64480;52.040;113.502;2023-04-25T13:59:07;6.60;27.38
75838;SHT30;64480;52.040;113.502;2023-04-25T14:02:11;6.43;28.00
75838;SHT30;64480;52.040;113.502;2023-04-25T14:05:16;6.32;27.74
75838;SHT30;64480;52.040;113.502;2023-04-25T14:08:19;6.18;27.76
75838;SHT30;64480;52.040;113.502;2023-04-25T14:11:23;6.12;27.89
75838;SHT30;64480;52.040;113.502;2023-04-25T14:14:27;6.04;28.03
75838;SHT30;64480;52.040;113.502;2023-04-25T14:17:55;5.97;28.08
75838;SHT30;64480;52.040;113.502;2023-04-25T14:21:01;5.89;28.12
75838;SHT30;64480;52.040;113.502;2023-04-25T14:24:04;5.80;29.02
75838;SHT30;64480;52.040;113.502;2023-04-25T14:27:08;5.69;28.73
75838;SHT30;64480;52.040;113.502;2023-04-25T14:30:12;5.55;30.79
75838;SHT30;64480;52.040;113.502;2023-04-25T14:33:15;5.39;31.66
75838;SHT30;64480;52.040;113.502;2023-04-25T14:36:19;5.27;31.23
75838;SHT30;64480;52.040;113.502;2023-04-25T14:39:23;5.21;30.56
75838;SHT30;64480;52.040;113.502;2023-04-25T14:42:26;5.15;30.27
75838;SHT30;64480;52.040;113.502;2023-04-25T14:45:29;5.11;31.12
75838;SHT30;64480;52.040;113.502;2023-04-25T14:48:33;5.01;31.63
75838;SHT30;64480;52.040;113.502;2023-04-25T14:52:02;4.97;31.86
75838;SHT30;64480;52.040;113.502;2023-04-25T14:55:06;4.87;32.00
75838;SHT30;64480;52.040;113.502;2023-04-25T14:58:35;4.85;32.04
75838;SHT30;64480;52.040;113.502;2023-04-25T15:01:41;4.81;32.56
75838;SHT30;64480;52.040;113.502;2023-04-25T15:04:44;4.76;32.58
75838;SHT30;64480;52.040;113.502;2023-04-25T15:07:50;4.67;32.30
75838;SHT30;64480;52.040;113.502;2023-04-25T15:10:55;4.57;32.70
75838;SHT30;64480;52.040;113.502;2023-04-25T15:14:01;4.46;33.03
75838;SHT30;64480;52.040;113.502;2023-04-25T15:17:05;4.39;32.86
75838;SHT30;64480;52.040;113.502;2023-04-25T15:20:10;4.32;32.99
75838;SHT30;64480;52.040;113.502;2023-04-25T15:23:13;4.28;33.11
75838;SHT30;64480;52.040;113.502;2023-04-25T15:26:20;4.21;31.39
75838;SHT30;64480;52.040;113.502;2023-04-25T15:29:24;4.12;33.13
75838;SHT30;64480;52.040;113.502;2023-04-25T15:32:32;4.07;33.87
75838;SHT30;64480;52.040;113.502;2023-04-25T15:35:35;4.01;31.33
75838;SHT30;64480;52.040;113.502;2023-04-25T15:38:39;3.93;31.93
75838;SHT30;64480;52.040;113.502;2023-04-25T15:41:43;3.79;32.20
75838;SHT30;64480;52.040;113.502;2023-04-25T15:44:57;3.69;31.66
75838;SHT30;64480;52.040;113.502;2023-04-25T15:48:04;3.62;32.21
75838;SHT30;64480;52.040;113.502;2023-04-25T15:51:11;3.53;32.20
75838;SHT30;64480;52.040;113.502;2023-04-25T15:54:15;3.51;32.52
75838;SHT30;64480;52.040;113.502;2023-04-25T15:57:19;3.42;32.84
75838;SHT30;64480;52.040;113.502;2023-04-25T16:00:25;3.34;33.01
75838;SHT30;64480;52.040;113.502;2023-04-25T16:03:29;3.31;32.73
75838;SHT30;64480;52.040;113.502;2023-04-25T16:06:40;3.27;32.62
75838;SHT30;64480;52.040;113.502;2023-04-25T16:09:44;3.17;32.92
75838;SHT30;64480;52.040;113.502;2023-04-25T16:12:51;3.09;34.95
75838;SHT30;64480;52.040;113.502;2023-04-25T16:15:54;2.98;35.68
75838;SHT30;64480;52.040;113.502;2023-04-25T16:18:58;2.89;36.00
75838;SHT30;64480;52.040;113.502;2023-04-25T16:22:01;2.86;36.59
75838;SHT30;64480;52.040;113.502;2023-04-25T16:25:14;2.87;33.81
75838;SHT30;64480;52.040;113.502;2023-04-25T16:28:18;2.81;34.23
75838;SHT30;64480;52.040;113.502;2023-04-25T16:31:22;2.81;33.74
75838;SHT30;64480;52.040;113.502;2023-04-25T16:34:31;2.81;34.03
75838;SHT30;64480;52.040;113.502;2023-04-25T16:37:35;2.77;35.16
75838;SHT30;64480;52.040;113.502;2023-04-25T16:40:43;2.75;34.76
75838;SHT30;64480;52.040;113.502;2023-04-25T16:43:50;2.67;33.73
75838;SHT30;64480;52.040;113.502;2023-04-25T16:46:53;2.57;34.25
75838;SHT30;64480;52.040;113.502;2023-04-25T16:50:02;2.53;34.51
75838;SHT30;64480;52.040;113.502;2023-04-25T16:53:05;2.46;34.86
75838;SHT30;64480;52.040;113.502;2023-04-25T16:56:12;2.34;35.32
75838;SHT30;64480;52.040;113.502;2023-04-25T16:59:18;2.24;36.31
75838;SHT30;64480;52.040;113.502;2023-04-25T17:02:22;2.17;36.49
75838;SHT30;64480;52.040;113.502;2023-04-25T17:05:26;2.11;36.51
75838;SHT30;64480;52.040;113.502;2023-04-25T17:08:29;2.10;36.88
75838;SHT30;64480;52.040;113.502;2023-04-25T17:11:33;2.03;36.97
75838;SHT30;64480;52.040;113.502;2023-04-25T17:14:36;1.98;37.00
75838;SHT30;64480;52.040;113.502;2023-04-25T17:17:40;1.93;37.43
75838;SHT30;64480;52.040;113.502;2023-04-25T17:20:44;1.83;36.65
75838;SHT30;64480;52.040;113.502;2023-04-25T17:23:48;1.72;36.52
75838;SHT30;64480;52.040;113.502;2023-04-25T17:26:51;1.58;36.31
75838;SHT30;64480;52.040;113.502;2023-04-25T17:29:54;1.48;36.70
75838;SHT30;64480;52.040;113.502;2023-04-25T17:32:58;1.41;37.24
75838;SHT30;64480;52.040;113.502;2023-04-25T17:36:01;1.35;37.46
75838;SHT30;64480;52.040;113.502;2023-04-25T17:39:05;1.30;37.77
75838;SHT30;64480;52.040;113.502;2023-04-25T17:42:12;1.27;37.80
75838;SHT30;64480;52.040;113.502;2023-04-25T17:45:17;1.27;38.31
75838;SHT30;64480;52.040;113.502;2023-04-25T17:48:20;1.28;38.90
75838;SHT30;64480;52.040;113.502;2023-04-25T17:51:28;1.27;38.55
75838;SHT30;64480;52.040;113.502;2023-04-25T17:54:32;1.27;39.17
75838;SHT30;64480;52.040;113.502;2023-04-25T17:57:35;1.27;39.07
75838;SHT30;64480;52.040;113.502;2023-04-25T18:00:39;1.21;39.26
75838;SHT30;64480;52.040;113.502;2023-04-25T18:03:43;1.23;39.88
75838;SHT30;64480;52.040;113.502;2023-04-25T18:06:52;1.20;40.15
75838;SHT30;64480;52.040;113.502;2023-04-25T18:09:55;1.07;40.57
75838;SHT30;64480;52.040;113.502;2023-04-25T18:12:58;1.08;41.50
75838;SHT30;64480;52.040;113.502;2023-04-25T18:16:02;1.07;41.64
75838;SHT30;64480;52.040;113.502;2023-04-25T18:19:06;1.04;42.13
75838;SHT30;64480;52.040;113.502;2023-04-25T18:22:13;0.94;42.07
75838;SHT30;64480;52.040;113.502;2023-04-25T18:25:17;0.90;42.44
75838;SHT30;64480;52.040;113.502;2023-04-25T18:28:20;0.84;41.58
75838;SHT30;64480;52.040;113.502;2023-04-25T18:31:24;0.84;41.51
75838;SHT30;64480;52.040;113.502;2023-04-25T18:34:28;0.75;42.57
75838;SHT30;64480;52.040;113.502;2023-04-25T18:37:32;0.53;43.28
75838;SHT30;64480;52.040;113.502;2023-04-25T18:40:36;0.28;43.67
75838;SHT30;64480;52.040;113.502;2023-04-25T18:43:55;0.00;43.35
75838;SHT30;64480;52.040;113.502;2023-04-25T18:47:01;-0.22;43.62
75838;SHT30;64480;52.040;113.502;2023-04-25T18:50:07;-0.31;44.12
75838;SHT30;64480;52.040;113.502;2023-04-25T18:53:11;-0.32;44.34
75838;SHT30;64480;52.040;113.502;2023-04-25T18:56:15;-0.35;44.40
75838;SHT30;64480;52.040;113.502;2023-04-25T18:59:19;-0.30;44.75
75838;SHT30;64480;52.040;113.502;2023-04-25T19:02:22;-0.30;44.80
75838;SHT30;64480;52.040;113.502;2023-04-25T19:05:26;-0.21;44.72
75838;SHT30;64480;52.040;113.502;2023-04-25T19:08:29;-0.11;44.36
75838;SHT30;64480;52.040;113.502;2023-04-25T19:11:33;-0.06;45.00
75838;SHT30;64480;52.040;113.502;2023-04-25T19:14:36;-0.11;44.85
75838;SHT30;64480;52.040;113.502;2023-04-25T19:17:39;-0.20;45.15
75838;SHT30;64480;52.040;113.502;2023-04-25T19:20:44;-0.32;45.42
75838;SHT30;64480;52.040;113.502;2023-04-25T19:23:48;-0.49;45.59
75838;SHT30;64480;52.040;113.502;2023-04-25T19:26:56;-0.70;45.20
75838;SHT30;64480;52.040;113.502;2023-04-25T19:29:59;-0.86;45.02